sensor_id;sensor_type;location;lat;lon;timestamp;temperature;humidity
27803;DHT22;15182;48.174;11.562;2022-09-11T00:02:02;18.50;99.90
27803;DHT22;15182;48.174;11.562;2022-09-11T00:04:33;18.40;99.90
27803;DHT22;15182;48.174;11.562;2022-09-11T00:07:05;18.40;99.90
27803;DHT22;15182;48.174;11.562;2022-09-11T00:09:36;18.40;99.90
27803;DHT22;15182;48.174;11.562;2022-09-11T00:12:08;18.40;99.90
27803;DHT22;15182;48.174;11.562;2022-09-11T00:14:41;18.40;99.90
27803;DHT22;15182;48.174;11.562;2022-09-11T00:17:12;18.40;99.90
27803;DHT22;15182;48.174;11.562;2022-09-11T00:19:44;18.40;99.90
27803;DHT22;15182;48.174;11.562;2022-09-11T00:22:15;18.40;99.90
27803;DHT22;15182;48.174;11.562;2022-09-11T00:24:46;18.40;99.90
27803;DHT22;15182;48.174;11.562;2022-09-11T00:27:18;18.40;99.90
27803;DHT22;15182;48.174;11.562;2022-09-11T00:29:50;18.40;99.90
27803;DHT22;15182;48.174;11.562;2022-09-11T00:32:22;18.40;99.90
27803;DHT22;15182;48.174;11.562;2022-09-11T00:34:53;18.40;99.90
27803;DHT22;15182;48.174;11.562;2022-09-11T00:37:24;18.40;99.90
27803;DHT22;15182;48.174;11.562;2022-09-11T00:39:55;18.40;99.90
27803;DHT22;15182;48.174;11.562;2022-09-11T00:42:26;18.30;99.90
27803;DHT22;15182;48.174;11.562;2022-09-11T00:45:03;18.30;99.90
27803;DHT22;15182;48.174;11.562;2022-09-11T00:47:36;18.30;99.90
27803;DHT22;15182;48.174;11.562;2022-09-11T00:50:12;18.30;99.90
27803;DHT22;15182;48.174;11.562;2022-09-11T00:52:56;18.20;99.90
27803;DHT22;15182;48.174;11.562;2022-09-11T00:55:32;18.30;99.90
27803;DHT22;15182;48.174;11.562;2022-09-11T00:58:08;18.30;99.90
27803;DHT22;15182;48.174;11.562;2022-09-11T01:00:44;18.30;99.90
27803;DHT22;15182;48.174;11.562;2022-09-11T01:03:16;18.30;99.90
27803;DHT22;15182;48.174;11.562;2022-09-11T01:05:47;18.30;99.90
27803;DHT22;15182;48.174;11.562;2022-09-11T01:08:19;18.20;99.90
27803;DHT22;15182;48.174;11.562;2022-09-11T01:10:58;18.30;99.90
27803;DHT22;15182;48.174;11.562;2022-09-11T01:13:38;18.20;99.90
27803;DHT22;15182;48.174;11.562;2022-09-11T01:16:25;18.20;99.90
27803;DHT22;15182;48.174;11.562;2022-09-11T01:19:04;18.20;99.90
27803;DHT22;15182;48.174;11.562;2022-09-11T01:21:56;18.20;99.90
27803;DHT22;15182;48.174;11.562;2022-09-11T01:24:48;18.20;99.90
27803;DHT22;15182;48.174;11.562;2022-09-11T01:27:40;18.20;99.90
27803;DHT22;15182;48.174;11.562;2022-09-11T01:30:15;18.20;99.90
27803;DHT22;15182;48.174;11.562;2022-09-11T01:33:07;18.20;99.90
27803;DHT22;15182;48.174;11.562;2022-09-11T01:35:48;18.20;99.90
27803;DHT22;15182;48.174;11.562;2022-09-11T01:38:27;18.20;99.90
27803;DHT22;15182;48.174;11.562;2022-09-11T01:41:05;18.20;99.90
27803;DHT22;15182;48.174;11.562;2022-09-11T01:43:52;18.20;99.90
27803;DHT22;15182;48.174;11.562;2022-09-11T01:46:28;18.20;99.90
27803;DHT22;15182;48.174;11.562;2022-09-11T01:49:05;18.20;99.90
27803;DHT22;15182;48.174;11.562;2022-09-11T01:51:41;18.20;99.90
27803;DHT22;15182;48.174;11.562;2022-09-11T01:54:16;18.20;99.90
27803;DHT22;15182;48.174;11.562;2022-09-11T01:56:53;18.20;99.90
27803;DHT22;15182;48.174;11.562;2022-09-11T01:59:33;18.20;99.90
27803;DHT22;15182;48.174;11.562;2022-09-11T02:02:23;18.20;99.90
27803;DHT22;15182;48.174;11.562;2022-09-11T02:05:03;18.20;99.90
27803;DHT22;15182;48.174;11.562;2022-09-11T02:07:40;18.20;99.90
27803;DHT22;15182;48.174;11.562;2022-09-11T02:10:18;18.20;99.90
27803;DHT22;15182;48.174;11.562;2022-09-11T02:12:56;18.20;99.90
27803;DHT22;15182;48.174;11.562;2022-09-11T02:15:37;18.20;99.90
27803;DHT22;15182;48.174;11.562;2022-09-11T02:18:18;18.20;99.90
27803;DHT22;15182;48.174;11.562;2022-09-11T02:20:51;18.20;99.90
27803;DHT22;15182;48.174;11.562;2022-09-11T02:23:24;18.20;99.90
27803;DHT22;15182;48.174;11.562;2022-09-11T02:25:56;18.20;99.90
27803;DHT22;15182;48.174;11.562;2022-09-11T02:28:27;18.20;99.90
27803;DHT22;15182;48.174;11.562;2022-09-11T02:31:01;18.20;99.90
27803;DHT22;15182;48.174;11.562;2022-09-11T02:33:36;18.20;99.90
27803;DHT22;15182;48.174;11.562;2022-09-11T02:36:29;18.20;99.90
27803;DHT22;15182;48.174;11.562;2022-09-11T02:39:16;18.20;99.90
27803;DHT22;15182;48.174;11.562;2022-09-11T02:42:03;18.20;99.90
27803;DHT22;15182;48.174;11.562;2022-09-11T02:44:46;18.20;99.90
27803;DHT22;15182;48.174;11.562;2022-09-11T02:47:35;18.20;99.90
27803;DHT22;15182;48.174;11.562;2022-09-11T02:50:16;18.20;99.90
27803;DHT22;15182;48.174;11.562;2022-09-11T02:53:00;18.20;99.90
27803;DHT22;15182;48.174;11.562;2022-09-11T02:55:46;18.20;99.90
27803;DHT22;15182;48.174;11.562;2022-09-11T02:58:24;18.20;99.90
27803;DHT22;15182;48.174;11.562;2022-09-11T03:01:02;18.20;99.90
27803;DHT22;15182;48.174;11.562;2022-09-11T03:03:41;18.20;99.90
27803;DHT22;15182;48.174;11.562;2022-09-11T03:06:16;18.20;99.90
27803;DHT22;15182;48.174;11.562;2022-09-11T03:08:49;18.20;99.90
27803;DHT22;15182;48.174;11.562;2022-09-11T03:11:21;18.20;99.90
27803;DHT22;15182;48.174;11.562;2022-09-11T03:13:52;18.20;99.90
27803;DHT22;15182;48.174;11.562;2022-09-11T03:16:24;18.10;99.90
27803;DHT22;15182;48.174;11.562;2022-09-11T03:18:57;18.20;99.90
27803;DHT22;15182;48.174;11.562;2022-09-11T03:21:30;18.10;99.90
27803;DHT22;15182;48.174;11.562;2022-09-11T03:24:02;18.10;99.90
27803;DHT22;15182;48.174;11.562;2022-09-11T03:26:37;18.10;99.90
27803;DHT22;15182;48.174;11.562;2022-09-11T03:29:08;18.10;99.90
27803;DHT22;15182;48.174;11.562;2022-09-11T03:31:39;18.10;99.90
27803;DHT22;15182;48.174;11.562;2022-09-11T03:34:13;18.10;99.90
27803;DHT22;15182;48.174;11.562;2022-09-11T03:36:48;18.10;99.90
27803;DHT22;15182;48.174;11.562;2022-09-11T03:39:19;18.00;99.90
27803;DHT22;15182;48.174;11.562;2022-09-11T03:41:51;18.00;99.90
27803;DHT22;15182;48.174;11.562;2022-09-11T03:44:24;18.00;99.90
27803;DHT22;15182;48.174;11.562;2022-09-11T03:46:56;18.00;99.90
27803;DHT22;15182;48.174;11.562;2022-09-11T03:49:28;18.00;99.90
27803;DHT22;15182;48.174;11.562;2022-09-11T03:52:01;18.00;99.90
27803;DHT22;15182;48.174;11.562;2022-09-11T03:54:32;18.00;99.90
27803;DHT22;15182;48.174;11.562;2022-09-11T03:57:05;18.00;99.90
27803;DHT22;15182;48.174;11.562;2022-09-11T03:59:39;18.00;99.90
27803;DHT22;15182;48.174;11.562;2022-09-11T04:02:10;18.00;99.90
27803;DHT22;15182;48.174;11.562;2022-09-11T04:04:43;18.00;99.90
27803;DHT22;15182;48.174;11.562;2022-09-11T04:07:14;17.90;99.90
27803;DHT22;15182;48.174;11.562;2022-09-11T04:09:46;17.90;99.90
27803;DHT22;15182;48.174;11.562;2022-09-11T04:12:18;17.90;99.90
27803;DHT22;15182;48.174;11.562;2022-09-11T04:14:49;17.90;99.90
27803;DHT22;15182;48.174;11.562;2022-09-11T04:17:20;17.90;99.90
27803;DHT22;15182;48.174;11.562;2022-09-11T04:19:53;17.90;99.90
27803;DHT22;15182;48.174;11.562;2022-09-11T04:22:29;17.90;99.90
27803;DHT22;15182;48.174;11.562;2022-09-11T04:25:01;17.90;99.90
27803;DHT22;15182;48.174;11.562;2022-09-11T04:27:32;17.80;99.90
27803;DHT22;15182;48.174;11.562;2022-09-11T04:30:07;17.90;99.90
27803;DHT22;15182;48.174;11.562;2022-09-11T04:32:39;17.90;99.90
27803;DHT22;15182;48.174;11.562;2022-09-11T04:35:12;17.90;99.90
27803;DHT22;15182;48.174;11.562;2022-09-11T04:37:51;17.90;99.90
27803;DHT22;15182;48.174;11.562;2022-09-11T04:40:22;17.90;99.90
27803;DHT22;15182;48.174;11.562;2022-09-11T04:42:54;17.90;99.90
27803;DHT22;15182;48.174;11.562;2022-09-11T04:47:54;17.80;99.90
27803;DHT22;15182;48.174;11.562;2022-09-11T04:50:27;17.90;99.90
27803;DHT22;15182;48.174;11.562;2022-09-11T04:53:21;17.90;99.90
27803;DHT22;15182;48.174;11.562;2022-09-11T04:55:52;17.90;99.90
27803;DHT22;15182;48.174;11.562;2022-09-11T04:58:37;17.90;99.90
27803;DHT22;15182;48.174;11.562;2022-09-11T05:01:10;17.90;99.90
27803;DHT22;15182;48.174;11.562;2022-09-11T05:03:45;17.90;99.90
27803;DHT22;15182;48.174;11.562;2022-09-11T05:06:18;17.90;99.90
27803;DHT22;15182;48.174;11.562;2022-09-11T05:08:50;17.90;99.90
27803;DHT22;15182;48.174;11.562;2022-09-11T05:11:22;17.80;99.90
27803;DHT22;15182;48.174;11.562;2022-09-11T05:13:53;17.90;99.90
27803;DHT22;15182;48.174;11.562;2022-09-11T05:16:28;17.90;99.90
27803;DHT22;15182;48.174;11.562;2022-09-11T05:19:02;17.80;99.90
27803;DHT22;15182;48.174;11.562;2022-09-11T05:21:36;17.90;99.90
27803;DHT22;15182;48.174;11.562;2022-09-11T05:24:08;17.90;99.90
27803;DHT22;15182;48.174;11.562;2022-09-11T05:26:41;17.90;99.90
27803;DHT22;15182;48.174;11.562;2022-09-11T05:29:15;17.90;99.90
27803;DHT22;15182;48.174;11.562;2022-09-11T05:32:12;17.90;99.90
27803;DHT22;15182;48.174;11.562;2022-09-11T05:34:44;17.90;99.90
27803;DHT22;15182;48.174;11.562;2022-09-11T05:37:19;17.90;99.90
27803;DHT22;15182;48.174;11.562;2022-09-11T05:39:51;17.90;99.90
27803;DHT22;15182;48.174;11.562;2022-09-11T05:42:25;17.90;99.90
27803;DHT22;15182;48.174;11.562;2022-09-11T05:44:57;17.90;99.90
27803;DHT22;15182;48.174;11.562;2022-09-11T05:47:29;17.90;99.90
27803;DHT22;15182;48.174;11.562;2022-09-11T05:50:00;17.90;99.90
27803;DHT22;15182;48.174;11.562;2022-09-11T05:52:33;17.90;99.90
27803;DHT22;15182;48.174;11.562;2022-09-11T05:55:06;18.00;99.90
27803;DHT22;15182;48.174;11.562;2022-09-11T05:57:38;18.00;99.90
27803;DHT22;15182;48.174;11.562;2022-09-11T06:00:09;18.00;99.90
27803;DHT22;15182;48.174;11.562;2022-09-11T06:02:51;18.00;99.90
27803;DHT22;15182;48.174;11.562;2022-09-11T06:05:26;18.00;99.90
27803;DHT22;15182;48.174;11.562;2022-09-11T06:08:02;18.00;99.90
27803;DHT22;15182;48.174;11.562;2022-09-11T06:10:33;18.00;99.90
27803;DHT22;15182;48.174;11.562;2022-09-11T06:13:05;18.00;99.90
27803;DHT22;15182;48.174;11.562;2022-09-11T06:15:38;18.00;99.90
27803;DHT22;15182;48.174;11.562;2022-09-11T06:18:15;18.10;99.90
27803;DHT22;15182;48.174;11.562;2022-09-11T06:20:56;18.10;99.90
27803;DHT22;15182;48.174;11.562;2022-09-11T06:23:35;18.10;99.90
27803;DHT22;15182;48.174;11.562;2022-09-11T06:26:09;18.10;99.90
27803;DHT22;15182;48.174;11.562;2022-09-11T06:28:45;18.10;99.90
27803;DHT22;15182;48.174;11.562;2022-09-11T06:31:19;18.10;99.90
27803;DHT22;15182;48.174;11.562;2022-09-11T06:33:54;18.10;99.90
27803;DHT22;15182;48.174;11.562;2022-09-11T06:36:26;18.10;99.90
27803;DHT22;15182;48.174;11.562;2022-09-11T06:39:02;18.10;99.90
27803;DHT22;15182;48.174;11.562;2022-09-11T06:41:35;18.20;99.90
27803;DHT22;15182;48.174;11.562;2022-09-11T06:44:13;18.20;99.90
27803;DHT22;15182;48.174;11.562;2022-09-11T06:46:45;18.20;99.90
27803;DHT22;15182;48.174;11.562;2022-09-11T06:49:16;18.20;99.90
27803;DHT22;15182;48.174;11.562;2022-09-11T06:52:06;18.20;99.90
27803;DHT22;15182;48.174;11.562;2022-09-11T06:54:39;18.20;99.90
27803;DHT22;15182;48.174;11.562;2022-09-11T06:57:15;18.20;99.90
27803;DHT22;15182;48.174;11.562;2022-09-11T06:59:47;18.20;99.90
27803;DHT22;15182;48.174;11.562;2022-09-11T07:02:20;18.20;99.90
27803;DHT22;15182;48.174;11.562;2022-09-11T07:04:53;18.30;99.90
27803;DHT22;15182;48.174;11.562;2022-09-11T07:07:28;18.30;99.90
27803;DHT22;15182;48.174;11.562;2022-09-11T07:10:02;18.30;99.90
27803;DHT22;15182;48.174;11.562;2022-09-11T07:12:34;18.30;99.90
27803;DHT22;15182;48.174;11.562;2022-09-11T07:15:06;18.30;99.90
27803;DHT22;15182;48.174;11.562;2022-09-11T07:17:40;18.40;99.90
27803;DHT22;15182;48.174;11.562;2022-09-11T07:20:13;18.40;99.90
27803;DHT22;15182;48.174;11.562;2022-09-11T07:22:45;18.40;99.90
27803;DHT22;15182;48.174;11.562;2022-09-11T07:25:19;18.50;99.90
27803;DHT22;15182;48.174;11.562;2022-09-11T07:27:52;18.50;99.90
27803;DHT22;15182;48.174;11.562;2022-09-11T07:30:24;18.50;99.90
27803;DHT22;15182;48.174;11.562;2022-09-11T07:32:57;18.50;99.90
27803;DHT22;15182;48.174;11.562;2022-09-11T07:35:28;18.50;99.90
27803;DHT22;15182;48.174;11.562;2022-09-11T07:37:59;18.50;99.90
27803;DHT22;15182;48.174;11.562;2022-09-11T07:40:33;18.60;99.90
27803;DHT22;15182;48.174;11.562;2022-09-11T07:43:06;18.60;99.90
27803;DHT22;15182;48.174;11.562;2022-09-11T07:45:41;18.60;99.90
27803;DHT22;15182;48.174;11.562;2022-09-11T07:48:12;18.70;99.90
27803;DHT22;15182;48.174;11.562;2022-09-11T07:50:54;18.70;99.90
27803;DHT22;15182;48.174;11.562;2022-09-11T07:53:25;18.80;99.90
27803;DHT22;15182;48.174;11.562;2022-09-11T07:56:03;18.80;99.90
27803;DHT22;15182;48.174;11.562;2022-09-11T07:58:36;18.80;99.90
27803;DHT22;15182;48.174;11.562;2022-09-11T08:01:13;18.90;99.90
27803;DHT22;15182;48.174;11.562;2022-09-11T08:03:47;19.00;99.90
27803;DHT22;15182;48.174;11.562;2022-09-11T08:06:22;19.00;99.90
27803;DHT22;15182;48.174;11.562;2022-09-11T08:08:55;19.10;99.90
27803;DHT22;15182;48.174;11.562;2022-09-11T08:11:31;19.10;99.90
27803;DHT22;15182;48.174;11.562;2022-09-11T08:14:07;19.20;99.90
27803;DHT22;15182;48.174;11.562;2022-09-11T08:16:41;19.20;99.90
27803;DHT22;15182;48.174;11.562;2022-09-11T08:19:17;19.20;99.90
27803;DHT22;15182;48.174;11.562;2022-09-11T08:22:02;19.20;99.90
27803;DHT22;15182;48.174;11.562;2022-09-11T08:24:39;19.20;99.90
27803;DHT22;15182;48.174;11.562;2022-09-11T08:27:14;19.20;99.90
27803;DHT22;15182;48.174;11.562;2022-09-11T08:29:46;19.30;99.90
27803;DHT22;15182;48.174;11.562;2022-09-11T08:32:20;19.30;99.90
27803;DHT22;15182;48.174;11.562;2022-09-11T08:34:52;19.30;99.90
27803;DHT22;15182;48.174;11.562;2022-09-11T08:37:25;19.40;99.90
27803;DHT22;15182;48.174;11.562;2022-09-11T08:40:05;19.40;99.90
27803;DHT22;15182;48.174;11.562;2022-09-11T08:42:40;19.40;99.90
27803;DHT22;15182;48.174;11.562;2022-09-11T08:45:16;19.40;99.90
27803;DHT22;15182;48.174;11.562;2022-09-11T08:47:52;19.40;99.90
27803;DHT22;15182;48.174;11.562;2022-09-11T08:50:27;19.40;99.90
27803;DHT22;15182;48.174;11.562;2022-09-11T08:53:02;19.40;99.90
27803;DHT22;15182;48.174;11.562;2022-09-11T08:55:39;19.30;99.90
27803;DHT22;15182;48.174;11.562;2022-09-11T08:58:19;19.30;99.90
27803;DHT22;15182;48.174;11.562;2022-09-11T09:01:00;19.30;99.90
27803;DHT22;15182;48.174;11.562;2022-09-11T09:03:48;19.30;99.90
27803;DHT22;15182;48.174;11.562;2022-09-11T09:06:39;19.40;99.90
27803;DHT22;15182;48.174;11.562;2022-09-11T09:09:27;19.40;99.90
27803;DHT22;15182;48.174;11.562;2022-09-11T09:12:07;19.40;99.90
27803;DHT22;15182;48.174;11.562;2022-09-11T09:14:55;19.40;99.90
27803;DHT22;15182;48.174;11.562;2022-09-11T09:17:34;19.40;99.90
27803;DHT22;15182;48.174;11.562;2022-09-11T09:20:13;19.40;99.90
27803;DHT22;15182;48.174;11.562;2022-09-11T09:22:52;19.40;99.90
27803;DHT22;15182;48.174;11.562;2022-09-11T09:25:27;19.40;99.90
27803;DHT22;15182;48.174;11.562;2022-09-11T09:28:05;19.40;99.90
27803;DHT22;15182;48.174;11.562;2022-09-11T09:30:45;19.30;99.90
27803;DHT22;15182;48.174;11.562;2022-09-11T09:33:27;19.30;99.90
27803;DHT22;15182;48.174;11.562;2022-09-11T09:36:11;19.30;99.90
27803;DHT22;15182;48.174;11.562;2022-09-11T09:38:46;19.30;99.90
27803;DHT22;15182;48.174;11.562;2022-09-11T09:41:41;19.30;99.90
27803;DHT22;15182;48.174;11.562;2022-09-11T09:44:40;19.30;99.90
27803;DHT22;15182;48.174;11.562;2022-09-11T09:47:21;19.30;99.90
27803;DHT22;15182;48.174;11.562;2022-09-11T09:50:01;19.30;99.90
27803;DHT22;15182;48.174;11.562;2022-09-11T09:52:34;19.30;99.90
27803;DHT22;15182;48.174;11.562;2022-09-11T09:55:13;19.30;99.90
27803;DHT22;15182;48.174;11.562;2022-09-11T09:57:45;19.30;99.90
27803;DHT22;15182;48.174;11.562;2022-09-11T10:00:19;19.40;99.90
27803;DHT22;15182;48.174;11.562;2022-09-11T10:02:53;19.30;99.90
27803;DHT22;15182;48.174;11.562;2022-09-11T10:05:27;19.40;99.90
27803;DHT22;15182;48.174;11.562;2022-09-11T10:08:01;19.40;99.90
27803;DHT22;15182;48.174;11.562;2022-09-11T10:10:36;19.40;99.90
27803;DHT22;15182;48.174;11.562;2022-09-11T10:13:20;19.40;99.90
27803;DHT22;15182;48.174;11.562;2022-09-11T10:15:54;19.50;99.90
27803;DHT22;15182;48.174;11.562;2022-09-11T10:18:41;19.50;99.90
27803;DHT22;15182;48.174;11.562;2022-09-11T10:21:21;19.50;99.90
27803;DHT22;15182;48.174;11.562;2022-09-11T10:23:58;19.50;99.90
27803;DHT22;15182;48.174;11.562;2022-09-11T10:26:35;19.50;99.90
27803;DHT22;15182;48.174;11.562;2022-09-11T10:29:14;19.50;99.90
27803;DHT22;15182;48.174;11.562;2022-09-11T10:31:50;19.50;99.90
27803;DHT22;15182;48.174;11.562;2022-09-11T10:34:26;19.50;99.90
27803;DHT22;15182;48.174;11.562;2022-09-11T10:37:05;19.60;99.90
27803;DHT22;15182;48.174;11.562;2022-09-11T10:39:45;19.60;99.90
27803;DHT22;15182;48.174;11.562;2022-09-11T10:42:18;19.60;99.90
27803;DHT22;15182;48.174;11.562;2022-09-11T10:44:52;19.70;99.90
27803;DHT22;15182;48.174;11.562;2022-09-11T10:47:26;19.80;99.90
27803;DHT22;15182;48.174;11.562;2022-09-11T10:50:20;19.90;99.90
27803;DHT22;15182;48.174;11.562;2022-09-11T10:53:02;19.90;99.90
27803;DHT22;15182;48.174;11.562;2022-09-11T10:55:41;20.00;99.90
27803;DHT22;15182;48.174;11.562;2022-09-11T10:58:20;20.00;99.90
27803;DHT22;15182;48.174;11.562;2022-09-11T11:00:52;20.10;99.90
27803;DHT22;15182;48.174;11.562;2022-09-11T11:03:25;20.10;99.90
27803;DHT22;15182;48.174;11.562;2022-09-11T11:06:04;20.10;99.90
27803;DHT22;15182;48.174;11.562;2022-09-11T11:09:29;20.20;99.90
27803;DHT22;15182;48.174;11.562;2022-09-11T11:12:17;20.20;99.90
27803;DHT22;15182;48.174;11.562;2022-09-11T11:15:19;20.30;99.90
27803;DHT22;15182;48.174;11.562;2022-09-11T11:18:09;20.40;99.90
27803;DHT22;15182;48.174;11.562;2022-09-11T11:20:49;20.50;99.90
27803;DHT22;15182;48.174;11.562;2022-09-11T11:23:48;20.50;99.90
27803;DHT22;15182;48.174;11.562;2022-09-11T11:26:31;20.50;99.90
27803;DHT22;15182;48.174;11.562;2022-09-11T11:29:21;20.60;99.90
27803;DHT22;15182;48.174;11.562;2022-09-11T11:32:08;20.60;99.90
27803;DHT22;15182;48.174;11.562;2022-09-11T11:34:58;20.60;99.90
27803;DHT22;15182;48.174;11.562;2022-09-11T11:37:41;20.60;99.90
27803;DHT22;15182;48.174;11.562;2022-09-11T11:40:19;20.70;99.90
27803;DHT22;15182;48.174;11.562;2022-09-11T11:42:54;20.60;99.90
27803;DHT22;15182;48.174;11.562;2022-09-11T11:45:31;20.60;99.90
27803;DHT22;15182;48.174;11.562;2022-09-11T11:48:09;20.70;99.90
27803;DHT22;15182;48.174;11.562;2022-09-11T11:50:47;20.70;99.90
27803;DHT22;15182;48.174;11.562;2022-09-11T11:53:24;20.90;99.90
27803;DHT22;15182;48.174;11.562;2022-09-11T11:56:04;21.10;99.90
27803;DHT22;15182;48.174;11.562;2022-09-11T11:58:48;21.20;99.90
27803;DHT22;15182;48.174;11.562;2022-09-11T12:01:26;21.40;99.90
27803;DHT22;15182;48.174;11.562;2022-09-11T12:04:02;21.60;99.90
27803;DHT22;15182;48.174;11.562;2022-09-11T12:06:39;21.80;99.90
27803;DHT22;15182;48.174;11.562;2022-09-11T12:09:12;21.80;99.90
27803;DHT22;15182;48.174;11.562;2022-09-11T12:11:48;21.90;99.90
27803;DHT22;15182;48.174;11.562;2022-09-11T12:14:27;21.90;99.90
27803;DHT22;15182;48.174;11.562;2022-09-11T12:17:16;21.80;99.90
27803;DHT22;15182;48.174;11.562;2022-09-11T12:20:28;21.80;99.90
27803;DHT22;15182;48.174;11.562;2022-09-11T12:23:31;21.70;99.90
27803;DHT22;15182;48.174;11.562;2022-09-11T12:26:17;21.60;99.90
27803;DHT22;15182;48.174;11.562;2022-09-11T12:32:22;21.60;99.90
27803;DHT22;15182;48.174;11.562;2022-09-11T12:34:59;21.50;99.90
27803;DHT22;15182;48.174;11.562;2022-09-11T12:37:37;21.50;99.90
27803;DHT22;15182;48.174;11.562;2022-09-11T12:40:14;21.40;99.90
27803;DHT22;15182;48.174;11.562;2022-09-11T12:42:54;21.40;99.90
27803;DHT22;15182;48.174;11.562;2022-09-11T12:45:32;21.40;99.90
27803;DHT22;15182;48.174;11.562;2022-09-11T12:48:10;21.40;99.90
27803;DHT22;15182;48.174;11.562;2022-09-11T12:50:49;21.30;99.90
27803;DHT22;15182;48.174;11.562;2022-09-11T12:53:27;21.30;99.90
27803;DHT22;15182;48.174;11.562;2022-09-11T12:56:02;21.30;99.90
27803;DHT22;15182;48.174;11.562;2022-09-11T12:58:37;21.30;99.90
27803;DHT22;15182;48.174;11.562;2022-09-11T13:01:19;21.20;99.90
27803;DHT22;15182;48.174;11.562;2022-09-11T13:03:56;21.30;99.90
27803;DHT22;15182;48.174;11.562;2022-09-11T13:06:37;21.20;99.90
27803;DHT22;15182;48.174;11.562;2022-09-11T13:09:20;21.20;99.90
27803;DHT22;15182;48.174;11.562;2022-09-11T13:11:55;21.20;99.90
27803;DHT22;15182;48.174;11.562;2022-09-11T13:14:49;21.10;99.90
27803;DHT22;15182;48.174;11.562;2022-09-11T13:17:26;21.10;99.90
27803;DHT22;15182;48.174;11.562;2022-09-11T13:20:20;21.10;99.90
27803;DHT22;15182;48.174;11.562;2022-09-11T13:22:52;21.10;99.90
27803;DHT22;15182;48.174;11.562;2022-09-11T13:25:27;21.10;99.90
27803;DHT22;15182;48.174;11.562;2022-09-11T13:28:01;21.20;99.90
27803;DHT22;15182;48.174;11.562;2022-09-11T13:30:51;21.20;99.90
27803;DHT22;15182;48.174;11.562;2022-09-11T13:33:24;21.30;99.90
27803;DHT22;15182;48.174;11.562;2022-09-11T13:35:58;21.40;99.90
27803;DHT22;15182;48.174;11.562;2022-09-11T13:38:35;21.50;99.90
27803;DHT22;15182;48.174;11.562;2022-09-11T13:41:14;21.50;99.90
27803;DHT22;15182;48.174;11.562;2022-09-11T13:43:50;21.60;99.90
27803;DHT22;15182;48.174;11.562;2022-09-11T13:46:26;21.60;99.90
27803;DHT22;15182;48.174;11.562;2022-09-11T13:49:12;21.60;99.90
27803;DHT22;15182;48.174;11.562;2022-09-11T13:51:52;21.60;99.90
27803;DHT22;15182;48.174;11.562;2022-09-11T13:54:27;21.60;99.90
27803;DHT22;15182;48.174;11.562;2022-09-11T13:57:15;21.60;99.90
27803;DHT22;15182;48.174;11.562;2022-09-11T13:59:49;21.60;99.90
27803;DHT22;15182;48.174;11.562;2022-09-11T14:02:43;21.60;99.90
27803;DHT22;15182;48.174;11.562;2022-09-11T14:05:19;21.60;99.90
27803;DHT22;15182;48.174;11.562;2022-09-11T14:07:56;21.60;99.90
27803;DHT22;15182;48.174;11.562;2022-09-11T14:10:31;21.60;99.90
27803;DHT22;15182;48.174;11.562;2022-09-11T14:13:10;21.70;99.90
27803;DHT22;15182;48.174;11.562;2022-09-11T14:15:48;21.70;99.90
27803;DHT22;15182;48.174;11.562;2022-09-11T14:18:28;21.70;99.90
27803;DHT22;15182;48.174;11.562;2022-09-11T14:21:05;21.70;99.90
27803;DHT22;15182;48.174;11.562;2022-09-11T14:23:45;21.70;99.90
27803;DHT22;15182;48.174;11.562;2022-09-11T14:26:20;21.80;99.90
27803;DHT22;15182;48.174;11.562;2022-09-11T14:29:03;21.80;99.90
27803;DHT22;15182;48.174;11.562;2022-09-11T14:31:37;21.80;99.90
27803;DHT22;15182;48.174;11.562;2022-09-11T14:34:17;21.80;99.90
27803;DHT22;15182;48.174;11.562;2022-09-11T14:36:50;21.80;99.90
27803;DHT22;15182;48.174;11.562;2022-09-11T14:39:28;21.90;99.90
27803;DHT22;15182;48.174;11.562;2022-09-11T14:42:01;21.90;99.90
27803;DHT22;15182;48.174;11.562;2022-09-11T14:44:35;21.90;99.90
27803;DHT22;15182;48.174;11.562;2022-09-11T14:47:10;21.80;99.70
27803;DHT22;15182;48.174;11.562;2022-09-11T14:49:45;21.80;99.40
27803;DHT22;15182;48.174;11.562;2022-09-11T14:52:19;21.80;99.60
27803;DHT22;15182;48.174;11.562;2022-09-11T14:54:51;21.80;99.50
27803;DHT22;15182;48.174;11.562;2022-09-11T14:57:26;21.70;99.70
27803;DHT22;15182;48.174;11.562;2022-09-11T14:59:59;21.70;99.80
27803;DHT22;15182;48.174;11.562;2022-09-11T15:02:31;21.70;99.90
27803;DHT22;15182;48.174;11.562;2022-09-11T15:05:04;21.60;99.90
27803;DHT22;15182;48.174;11.562;2022-09-11T15:07:38;21.60;99.90
27803;DHT22;15182;48.174;11.562;2022-09-11T15:10:11;21.60;99.90
27803;DHT22;15182;48.174;11.562;2022-09-11T15:12:43;21.60;99.90
27803;DHT22;15182;48.174;11.562;2022-09-11T15:15:17;21.50;99.90
27803;DHT22;15182;48.174;11.562;2022-09-11T15:17:48;21.50;99.90
27803;DHT22;15182;48.174;11.562;2022-09-11T15:20:21;21.50;99.90
27803;DHT22;15182;48.174;11.562;2022-09-11T15:22:54;21.50;99.90
27803;DHT22;15182;48.174;11.562;2022-09-11T15:25:27;21.40;99.90
27803;DHT22;15182;48.174;11.562;2022-09-11T15:27:59;21.40;99.90
27803;DHT22;15182;48.174;11.562;2022-09-11T15:30:30;21.40;99.90
27803;DHT22;15182;48.174;11.562;2022-09-11T15:33:02;21.40;99.90
27803;DHT22;15182;48.174;11.562;2022-09-11T15:35:34;21.40;99.90
27803;DHT22;15182;48.174;11.562;2022-09-11T15:38:05;21.40;99.90
27803;DHT22;15182;48.174;11.562;2022-09-11T15:40:37;21.40;99.90
27803;DHT22;15182;48.174;11.562;2022-09-11T15:43:08;21.40;99.90
27803;DHT22;15182;48.174;11.562;2022-09-11T15:45:42;21.40;99.90
27803;DHT22;15182;48.174;11.562;2022-09-11T15:48:13;21.40;99.90
27803;DHT22;15182;48.174;11.562;2022-09-11T15:50:47;21.40;99.90
27803;DHT22;15182;48.174;11.562;2022-09-11T15:53:29;21.40;99.90
27803;DHT22;15182;48.174;11.562;2022-09-11T15:56:03;21.40;99.90
27803;DHT22;15182;48.174;11.562;2022-09-11T15:58:38;21.40;99.90
27803;DHT22;15182;48.174;11.562;2022-09-11T16:01:15;21.40;99.90
27803;DHT22;15182;48.174;11.562;2022-09-11T16:03:51;21.40;99.90
27803;DHT22;15182;48.174;11.562;2022-09-11T16:06:27;21.40;99.90
27803;DHT22;15182;48.174;11.562;2022-09-11T16:09:02;21.40;99.90
27803;DHT22;15182;48.174;11.562;2022-09-11T16:11:36;21.40;99.90
27803;DHT22;15182;48.174;11.562;2022-09-11T16:14:10;21.40;99.90
27803;DHT22;15182;48.174;11.562;2022-09-11T16:16:46;21.40;99.90
27803;DHT22;15182;48.174;11.562;2022-09-11T16:19:19;21.40;99.90
27803;DHT22;15182;48.174;11.562;2022-09-11T16:21:58;21.40;99.90